Terminal Aerodrome Forecast
Issued by NWS

Home | Current Version | Previous Version | Text Only | Print | Product List | Glossary On
Versions: 1 2 3 4 5 6 7 8 9 10 11 12 13 14 15 16
000
FTUS45 KRIW 041131
TAFRKS
TAF
KRKS 041131Z 0412/0512 25011KT P6SM SCT014
      TEMPO 0412/0414 3SM BR BKN014
     FM041400 26012G20KT P6SM SCT030 BKN080
     FM041600 28020G30KT P6SM SCT090
     FM050200 VRB06KT P6SM FEW200=

USA.gov is the U.S. government's official web portal to all federal, state and local government web resources and services.